Time;durP1;ratioP1;P1;durP2;ratioP2;P2;SDS_P1;SDS_P2;PMS_P1;PMS_P2;Temp;Humidity;BMP_temperature;BMP_pressure;BME280_temperature;BME280_humidity;BME280_pressure;Samples;Min_cycle;Max_cycle;Signal;HPM_P1;HPM_P2
2023/06/27 00:01:45;;;;;;;7.93;2.88;;;15.20;99.90;;;;;;5005078;28;20499;-70
2023/06/27 00:04:12;;;;;;;8.55;2.75;;;15.20;99.90;;;;;;5004290;28;20046;-70
2023/06/27 00:06:40;;;;;;;9.77;2.47;;;15.20;99.90;;;;;;5003744;28;20084;-68
2023/06/27 00:09:10;;;;;;;7.63;2.42;;;15.10;99.90;;;;;;5003329;28;20522;-69
2023/06/27 00:11:40;;;;;;;7.40;2.50;;;15.10;99.90;;;;;;5004752;28;20048;-69
2023/06/27 00:14:08;;;;;;;7.95;2.45;;;15.10;99.90;;;;;;4986662;28;20317;-70
2023/06/27 00:16:35;;;;;;;6.88;2.33;;;15.10;99.90;;;;;;4992387;28;20042;-71
2023/06/27 00:19:02;;;;;;;13.00;2.85;;;15.10;99.90;;;;;;5003416;28;20133;-71
2023/06/27 00:21:28;;;;;;;7.57;2.60;;;15.00;99.90;;;;;;5002894;28;20042;-70
2023/06/27 00:23:56;;;;;;;9.05;2.80;;;15.00;99.90;;;;;;5003903;28;20042;-70
2023/06/27 00:26:22;;;;;;;10.93;2.80;;;15.00;99.90;;;;;;5005313;28;20054;-70
2023/06/27 00:28:48;;;;;;;7.18;2.63;;;15.00;99.90;;;;;;5004894;28;20057;-71
2023/06/27 00:31:14;;;;;;;6.55;2.72;;;15.00;99.90;;;;;;5004816;28;20038;-70
2023/06/27 00:33:39;;;;;;;7.75;2.90;;;14.90;99.90;;;;;;5003396;28;20042;-71
2023/06/27 00:36:05;;;;;;;10.23;2.90;;;14.90;99.90;;;;;;5003850;28;20156;-70
2023/06/27 00:38:32;;;;;;;9.48;2.78;;;14.90;99.90;;;;;;5005836;28;20502;-70
2023/06/27 00:40:58;;;;;;;8.32;2.88;;;14.80;99.90;;;;;;5008399;28;20041;-70
2023/06/27 00:43:23;;;;;;;6.93;2.70;;;14.80;99.90;;;;;;5005229;28;20578;-70
2023/06/27 00:45:50;;;;;;;9.48;3.00;;;14.80;99.90;;;;;;5008241;28;20092;-70
2023/06/27 00:48:16;;;;;;;6.00;2.75;;;14.70;99.90;;;;;;5007561;28;20115;-70
2023/06/27 00:50:44;;;;;;;11.27;3.45;;;14.80;99.90;;;;;;5008003;28;20041;-70
2023/06/27 00:53:11;;;;;;;7.95;2.80;;;14.70;99.90;;;;;;5007673;28;20053;-70
2023/06/27 00:55:39;;;;;;;8.50;2.78;;;14.70;99.90;;;;;;5005950;28;20121;-71
2023/06/27 00:58:06;;;;;;;8.02;2.80;;;14.70;99.90;;;;;;5007842;28;20763;-70
2023/06/27 01:00:32;;;;;;;7.85;2.33;;;14.60;99.90;;;;;;5008732;28;20042;-70
2023/06/27 01:02:58;;;;;;;10.60;2.72;;;14.60;99.90;;;;;;5006758;28;20044;-70
2023/06/27 01:05:24;;;;;;;10.60;2.80;;;14.60;99.90;;;;;;4989266;28;20692;-70
2023/06/27 01:08:01;;;;;;;8.70;3.17;;;14.60;99.90;;;;;;5008983;28;20042;-70
2023/06/27 01:10:42;;;;;;;8.02;2.45;;;14.60;99.90;;;;;;5009001;28;20045;-70
2023/06/27 01:13:17;;;;;;;;;;;14.50;99.90;;;;;;5006715;28;20038;-70
2023/06/27 01:15:44;;;;;;;6.55;2.65;;;14.50;99.90;;;;;;5006982;28;19922;-70
2023/06/27 01:18:12;;;;;;;9.13;2.65;;;14.50;99.90;;;;;;5007642;28;20124;-70
2023/06/27 01:20:39;;;;;;;7.30;2.55;;;14.50;99.90;;;;;;4990814;28;20495;-70
2023/06/27 01:23:16;;;;;;;6.15;2.97;;;14.50;99.90;;;;;;5006930;28;20409;-70
2023/06/27 01:25:42;;;;;;;8.25;2.65;;;14.40;99.90;;;;;;5007103;28;20124;-70
2023/06/27 01:28:13;;;;;;;9.02;3.10;;;14.40;99.90;;;;;;5003176;28;20034;-71
2023/06/27 01:30:40;;;;;;;;;;;14.40;99.90;;;;;;4989348;28;20402;-70
2023/06/27 01:33:27;;;;;;;5.15;2.58;;;14.30;99.90;;;;;;4989052;28;19932;-70
2023/06/27 01:36:17;;;;;;;8.18;2.55;;;14.20;99.90;;;;;;5005895;28;20555;-70
2023/06/27 01:38:51;;;;;;;9.68;3.28;;;14.30;99.90;;;;;;5002855;28;20450;-70
2023/06/27 01:41:18;;;;;;;7.93;3.20;;;14.30;99.90;;;;;;5003536;28;20125;-70
2023/06/27 01:43:45;;;;;;;8.38;2.85;;;14.30;99.90;;;;;;5002260;28;20049;-70
2023/06/27 01:46:11;;;;;;;7.93;2.80;;;14.30;99.90;;;;;;5004754;28;20088;-70
2023/06/27 01:48:40;;;;;;;6.70;2.97;;;14.30;99.90;;;;;;5005999;28;20477;-70
2023/06/27 01:51:09;;;;;;;6.43;2.47;;;14.30;99.90;;;;;;5005820;28;20152;-70
2023/06/27 01:53:36;;;;;;;7.57;2.70;;;14.30;99.90;;;;;;5005683;28;20038;-70
2023/06/27 01:56:03;;;;;;;8.40;2.90;;;14.30;99.90;;;;;;5005524;28;20057;-70
2023/06/27 01:58:29;;;;;;;7.75;2.72;;;14.30;99.90;;;;;;5007072;28;20053;-70
2023/06/27 02:00:55;;;;;;;7.68;2.78;;;14.30;99.90;;;;;;5006562;28;20139;-70
2023/06/27 02:03:21;;;;;;;8.23;2.60;;;14.30;99.90;;;;;;5008233;28;20574;-70
2023/06/27 02:05:46;;;;;;;6.18;2.58;;;14.30;99.90;;;;;;5005008;28;20120;-70
2023/06/27 02:08:12;;;;;;;7.32;2.85;;;14.30;99.90;;;;;;5008155;28;20084;-69
2023/06/27 02:10:38;;;;;;;9.60;2.80;;;14.20;99.90;;;;;;5007005;28;20466;-70
2023/06/27 02:13:03;;;;;;;6.93;2.70;;;14.20;99.90;;;;;;5007819;28;20049;-70
2023/06/27 02:15:30;;;;;;;7.63;2.47;;;14.20;99.90;;;;;;5005822;28;20136;-70
2023/06/27 02:17:57;;;;;;;6.78;3.25;;;14.20;99.90;;;;;;5006659;28;20060;-69
2023/06/27 02:20:23;;;;;;;10.68;3.13;;;14.20;99.90;;;;;;5007359;28;20522;-69
2023/06/27 02:22:48;;;;;;;6.65;2.67;;;14.20;99.90;;;;;;5000179;28;20127;-69
2023/06/27 02:25:14;;;;;;;6.15;2.63;;;14.20;99.90;;;;;;5003746;28;20400;-69
2023/06/27 02:27:40;;;;;;;6.18;2.42;;;14.20;99.90;;;;;;5003626;28;20038;-69
2023/06/27 02:30:06;;;;;;;5.53;2.33;;;14.20;99.90;;;;;;5006257;28;20046;-69
2023/06/27 02:32:32;;;;;;;4.18;2.03;;;14.10;99.90;;;;;;4990392;28;20117;-69
2023/06/27 02:34:57;;;;;;;7.20;2.92;;;14.10;99.90;;;;;;5003720;28;20117;-70
2023/06/27 02:37:23;;;;;;;7.78;2.50;;;14.10;99.90;;;;;;5007386;28;20815;-69
2023/06/27 02:39:50;;;;;;;7.45;2.63;;;14.10;99.90;;;;;;5006076;28;20053;-69
2023/06/27 02:42:16;;;;;;;6.63;2.33;;;14.10;99.90;;;;;;5003850;28;20057;-69
2023/06/27 02:44:41;;;;;;;7.75;2.90;;;14.10;99.90;;;;;;5005480;28;20418;-69
2023/06/27 02:47:07;;;;;;;10.05;2.53;;;14.00;99.90;;;;;;5008045;28;20408;-69
2023/06/27 02:49:33;;;;;;;6.05;2.55;;;14.00;99.90;;;;;;5006391;28;20111;-69
2023/06/27 02:51:59;;;;;;;5.78;2.38;;;14.00;99.90;;;;;;5006740;28;20034;-69
2023/06/27 02:54:24;;;;;;;5.00;2.40;;;14.00;99.90;;;;;;5005760;28;20410;-69
2023/06/27 02:56:50;;;;;;;6.72;2.42;;;14.00;99.90;;;;;;5005344;28;20397;-69
2023/06/27 02:59:16;;;;;;;6.80;2.45;;;14.00;99.90;;;;;;5002372;28;20438;-69
2023/06/27 03:01:42;;;;;;;7.07;2.80;;;13.90;99.90;;;;;;5007078;28;20069;-70
2023/06/27 03:04:10;;;;;;;7.88;2.70;;;13.90;99.90;;;;;;5005407;28;20107;-70
2023/06/27 03:06:35;;;;;;;7.70;2.97;;;13.90;99.90;;;;;;5005220;28;20042;-69
2023/06/27 03:09:02;;;;;;;8.82;2.88;;;13.90;99.90;;;;;;5005818;28;20413;-69
2023/06/27 03:11:28;;;;;;;5.47;2.67;;;13.90;99.90;;;;;;5005337;28;20049;-70
2023/06/27 03:13:53;;;;;;;8.35;2.95;;;13.90;99.90;;;;;;5003255;28;20053;-69
2023/06/27 03:16:19;;;;;;;8.20;2.95;;;13.80;99.90;;;;;;5007337;28;20049;-69
2023/06/27 03:18:45;;;;;;;8.57;3.10;;;13.90;99.90;;;;;;5005776;28;20803;-69
2023/06/27 03:21:11;;;;;;;9.63;2.90;;;13.80;99.90;;;;;;5003013;28;20050;-69
2023/06/27 03:23:36;;;;;;;5.70;2.72;;;13.80;99.90;;;;;;4995229;28;20050;-69
2023/06/27 03:26:03;;;;;;;7.07;2.50;;;13.80;99.90;;;;;;5004246;28;20042;-71
2023/06/27 03:28:29;;;;;;;8.30;2.72;;;13.80;99.90;;;;;;5003071;28;20053;-69
2023/06/27 03:30:55;;;;;;;8.38;2.67;;;13.70;99.90;;;;;;5001627;28;20095;-70
2023/06/27 03:33:20;;;;;;;8.85;3.00;;;13.80;99.90;;;;;;5004119;28;20049;-70
2023/06/27 03:35:46;;;;;;;8.80;2.80;;;13.80;99.90;;;;;;5002135;28;20053;-69
2023/06/27 03:38:12;;;;;;;7.55;2.60;;;13.80;99.90;;;;;;5004364;28;20049;-69
2023/06/27 03:40:37;;;;;;;8.45;2.80;;;13.70;99.90;;;;;;5001611;28;20096;-69
2023/06/27 03:43:03;;;;;;;8.80;2.65;;;13.80;99.90;;;;;;5000973;28;20148;-70
2023/06/27 03:45:29;;;;;;;6.30;2.70;;;13.70;99.90;;;;;;5004602;28;20045;-69
2023/06/27 03:47:55;;;;;;;7.13;2.35;;;13.70;99.90;;;;;;5004429;28;20628;-69
2023/06/27 03:50:20;;;;;;;7.28;2.63;;;13.70;99.90;;;;;;5003885;28;20052;-69
2023/06/27 03:52:46;;;;;;;6.22;2.80;;;13.70;99.90;;;;;;5003954;28;20081;-70
2023/06/27 03:55:12;;;;;;;9.20;2.60;;;13.70;99.90;;;;;;5004160;28;20107;-69
2023/06/27 03:57:38;;;;;;;6.30;2.63;;;13.70;99.90;;;;;;4998883;28;20129;-70
2023/06/27 04:00:07;;;;;;;7.78;3.20;;;13.70;99.90;;;;;;5002712;28;20044;-69
2023/06/27 04:02:33;;;;;;;7.07;2.83;;;13.70;99.90;;;;;;5000525;28;20046;-70
2023/06/27 04:04:59;;;;;;;10.30;2.60;;;13.70;99.90;;;;;;4986160;28;20131;-69
2023/06/27 04:07:25;;;;;;;6.75;2.20;;;13.70;99.90;;;;;;4984543;28;20046;-69
2023/06/27 04:09:50;;;;;;;8.40;2.78;;;13.70;99.90;;;;;;5002828;28;20038;-69
2023/06/27 04:12:16;;;;;;;8.85;2.97;;;13.70;99.90;;;;;;4999477;28;20037;-70
2023/06/27 04:14:42;;;;;;;7.88;2.92;;;13.70;99.90;;;;;;5004792;28;20682;-70
2023/06/27 04:17:07;;;;;;;7.78;2.47;;;13.70;99.90;;;;;;5005680;28;20094;-70
2023/06/27 04:19:33;;;;;;;9.82;3.25;;;13.70;99.90;;;;;;5005441;28;20034;-70
2023/06/27 04:21:59;;;;;;;11.05;2.90;;;13.80;99.90;;;;;;5006660;28;20125;-70
2023/06/27 04:24:24;;;;;;;9.43;3.08;;;13.80;99.90;;;;;;4999693;28;21948;-70
2023/06/27 04:26:50;;;;;;;8.63;2.60;;;13.80;99.90;;;;;;5003356;28;20628;-70
2023/06/27 04:29:16;;;;;;;6.30;2.90;;;13.80;99.90;;;;;;4988148;28;20081;-70
2023/06/27 04:31:41;;;;;;;8.10;2.90;;;13.90;99.90;;;;;;5004880;28;20725;-70
2023/06/27 04:34:08;;;;;;;8.07;2.78;;;13.90;99.90;;;;;;4999187;28;20049;-70
2023/06/27 04:36:36;;;;;;;8.75;2.50;;;13.90;99.90;;;;;;5003302;28;20502;-70
2023/06/27 04:39:03;;;;;;;8.88;3.03;;;14.00;99.90;;;;;;5006405;28;20045;-70
2023/06/27 04:41:29;;;;;;;7.03;2.53;;;14.30;99.90;;;;;;4988251;28;20141;-70
2023/06/27 04:43:58;;;;;;;6.57;2.40;;;14.60;99.90;;;;;;5005562;28;20054;-70
2023/06/27 04:46:28;;;;;;;7.63;2.20;;;14.90;99.90;;;;;;5003412;28;20709;-69
2023/06/27 04:48:58;;;;;;;6.75;2.40;;;15.30;99.90;;;;;;5004340;28;20116;-70
2023/06/27 04:51:27;;;;;;;7.85;2.15;;;15.60;99.90;;;;;;5002130;28;20069;-69
2023/06/27 04:53:52;;;;;;;5.88;2.00;;;16.00;99.90;;;;;;5006666;28;20379;-70
2023/06/27 04:56:18;;;;;;;8.05;2.10;;;16.30;99.90;;;;;;5003623;28;20061;-70
2023/06/27 04:58:44;;;;;;;7.75;2.05;;;16.50;99.90;;;;;;5002441;28;20042;-70
2023/06/27 05:01:10;;;;;;;7.60;2.08;;;16.80;99.90;;;;;;5003346;28;20058;-70
2023/06/27 05:03:37;;;;;;;7.47;1.85;;;17.10;99.90;;;;;;5003498;28;20048;-71
2023/06/27 05:06:06;;;;;;;7.38;1.90;;;17.40;99.90;;;;;;5005960;28;20046;-71
2023/06/27 05:08:34;;;;;;;7.38;1.88;;;17.70;99.90;;;;;;5002908;28;20101;-70
2023/06/27 05:11:00;;;;;;;7.63;1.95;;;18.00;99.90;;;;;;5002271;28;20176;-71
2023/06/27 05:13:26;;;;;;;10.75;2.03;;;18.30;99.90;;;;;;5000888;28;20166;-70
2023/06/27 05:15:51;;;;;;;5.85;1.50;;;18.50;99.90;;;;;;4994765;28;20042;-71
2023/06/27 05:18:17;;;;;;;5.90;2.10;;;18.70;99.90;;;;;;5002994;28;20050;-70
2023/06/27 05:20:44;;;;;;;5.97;1.70;;;19.00;99.90;;;;;;4992382;28;20037;-70
2023/06/27 05:23:10;;;;;;;6.38;1.58;;;19.30;99.90;;;;;;4991640;28;20049;-71
2023/06/27 05:25:37;;;;;;;5.63;1.60;;;19.50;99.90;;;;;;4991542;28;20049;-71
2023/06/27 05:28:03;;;;;;;6.63;1.67;;;19.70;99.90;;;;;;4990314;28;20403;-71
2023/06/27 05:30:29;;;;;;;4.65;1.73;;;19.90;99.90;;;;;;4986076;28;20046;-71
2023/06/27 05:32:56;;;;;;;7.15;1.80;;;20.00;99.90;;;;;;4988101;28;20045;-71
2023/06/27 05:35:22;;;;;;;9.35;1.50;;;20.10;99.90;;;;;;4991285;28;20049;-71
2023/06/27 05:37:48;;;;;;;4.95;1.65;;;20.00;99.90;;;;;;4995522;28;20034;-71
2023/06/27 05:40:14;;;;;;;7.80;1.60;;;19.80;99.90;;;;;;4993744;28;20042;-71
2023/06/27 05:42:40;;;;;;;7.20;1.58;;;19.50;99.90;;;;;;4973598;28;20519;-71
2023/06/27 05:45:06;;;;;;;5.78;1.50;;;19.30;99.90;;;;;;4991561;28;20053;-71
2023/06/27 05:47:32;;;;;;;9.90;2.30;;;19.10;99.90;;;;;;4993690;28;20045;-72
2023/06/27 05:49:58;;;;;;;10.63;1.77;;;18.90;99.90;;;;;;4993068;28;20042;-71
2023/06/27 05:52:24;;;;;;;5.68;1.50;;;18.70;99.90;;;;;;4991342;28;20073;-71
2023/06/27 05:54:53;;;;;;;9.07;1.75;;;18.60;99.90;;;;;;4990199;28;20133;-71
2023/06/27 05:57:19;;;;;;;9.13;1.95;;;18.50;99.90;;;;;;4986718;28;20156;-71
2023/06/27 05:59:44;;;;;;;7.82;1.90;;;18.40;99.90;;;;;;4987624;28;20038;-71
2023/06/27 06:02:10;;;;;;;7.28;1.73;;;18.30;99.90;;;;;;4992676;28;20103;-71
2023/06/27 06:04:36;;;;;;;6.25;1.40;;;18.30;99.90;;;;;;4990914;28;20050;-72
2023/06/27 06:07:03;;;;;;;9.02;1.65;;;18.50;99.90;;;;;;4989502;28;20526;-70
2023/06/27 06:09:30;;;;;;;7.55;1.25;;;18.90;99.90;;;;;;5001294;28;20060;-72
2023/06/27 06:11:57;;;;;;;5.65;1.10;;;19.30;99.90;;;;;;4999806;28;20058;-70
2023/06/27 06:14:23;;;;;;;6.05;1.30;;;19.70;99.90;;;;;;4998934;28;20084;-70
2023/06/27 06:16:49;;;;;;;5.82;1.40;;;20.00;99.90;;;;;;4994692;28;20038;-70
2023/06/27 06:19:15;;;;;;;6.88;1.40;;;20.30;99.90;;;;;;4975554;28;20060;-71
2023/06/27 06:21:41;;;;;;;5.82;1.35;;;20.60;99.90;;;;;;4989088;28;20883;-70
2023/06/27 06:24:10;;;;;;;6.07;1.20;;;20.90;99.90;;;;;;4986561;28;20046;-71
2023/06/27 06:26:36;;;;;;;9.10;1.52;;;21.00;99.90;;;;;;4987519;28;20046;-70
2023/06/27 06:29:03;;;;;;;5.10;1.15;;;20.90;99.90;;;;;;4995265;28;20157;-71
2023/06/27 06:31:29;;;;;;;7.95;1.40;;;20.70;99.90;;;;;;4987407;28;20100;-71
2023/06/27 06:33:57;;;;;;;6.50;1.30;;;20.50;99.90;;;;;;4992652;28;20041;-71
2023/06/27 06:36:23;;;;;;;7.35;1.20;;;20.20;99.90;;;;;;5003765;28;20049;-71
2023/06/27 06:38:48;;;;;;;8.85;1.70;;;20.00;99.90;;;;;;4997179;28;20133;-70
2023/06/27 06:41:14;;;;;;;7.90;1.50;;;19.90;99.90;;;;;;5001136;28;20045;-70
2023/06/27 06:43:41;;;;;;;9.18;1.17;;;19.70;99.90;;;;;;5001955;28;20034;-71
2023/06/27 06:46:06;;;;;;;7.75;1.42;;;19.70;99.90;;;;;;5002650;28;20442;-70
2023/06/27 06:48:32;;;;;;;9.45;1.83;;;19.60;99.90;;;;;;5018420;28;20038;-70
2023/06/27 06:50:58;;;;;;;5.95;1.52;;;19.50;99.90;;;;;;4999489;28;20523;-70
2023/06/27 06:53:24;;;;;;;6.72;1.65;;;19.40;99.90;;;;;;4985622;28;20052;-70
2023/06/27 06:55:50;;;;;;;5.57;1.20;;;19.40;99.90;;;;;;4998651;28;20054;-71
2023/06/27 06:58:16;;;;;;;7.28;1.30;;;19.50;99.90;;;;;;5003761;28;20107;-71
2023/06/27 07:00:42;;;;;;;6.70;1.02;;;19.40;99.90;;;;;;5002128;28;20100;-71
2023/06/27 07:03:09;;;;;;;9.57;1.42;;;19.40;99.90;;;;;;5011557;28;20462;-71
2023/06/27 07:05:35;;;;;;;10.18;1.63;;;19.50;99.90;;;;;;5001690;28;20082;-71
2023/06/27 07:08:03;;;;;;;8.45;1.30;;;19.50;99.90;;;;;;5001396;28;20049;-71
2023/06/27 07:10:29;;;;;;;4.25;1.20;;;19.50;99.90;;;;;;4995116;28;20518;-71
2023/06/27 07:12:55;;;;;;;5.28;1.08;;;19.60;99.90;;;;;;5000993;28;20055;-71
2023/06/27 07:15:22;;;;;;;5.68;1.40;;;19.60;99.90;;;;;;5002322;28;20045;-70
2023/06/27 07:17:47;;;;;;;5.43;0.93;;;19.70;99.90;;;;;;5003262;28;20046;-70
2023/06/27 07:20:14;;;;;;;9.43;1.92;;;19.80;99.90;;;;;;5004332;28;20065;-70
2023/06/27 07:22:41;;;;;;;7.57;1.33;;;19.90;99.90;;;;;;5000441;28;20524;-70
2023/06/27 07:25:08;;;;;;;6.43;1.38;;;20.00;99.90;;;;;;4998386;28;20054;-71
2023/06/27 07:27:33;;;;;;;4.80;1.17;;;20.00;99.90;;;;;;5004130;28;20550;-70
2023/06/27 07:29:59;;;;;;;5.93;1.25;;;20.00;99.90;;;;;;5004018;28;20045;-71
2023/06/27 07:32:25;;;;;;;4.93;1.00;;;20.10;99.90;;;;;;4984118;28;20116;-71
2023/06/27 07:34:51;;;;;;;6.22;1.30;;;20.20;99.90;;;;;;5002190;28;20057;-72
2023/06/27 07:37:17;;;;;;;5.07;0.80;;;20.20;99.90;;;;;;5000309;28;20510;-72
2023/06/27 07:39:42;;;;;;;4.88;0.98;;;20.30;99.90;;;;;;5001505;28;20840;-72
2023/06/27 07:42:08;;;;;;;8.73;1.30;;;20.40;99.90;;;;;;5002436;28;20153;-72
2023/06/27 07:44:35;;;;;;;5.53;1.20;;;20.50;99.90;;;;;;5003580;28;20221;-72
2023/06/27 07:47:00;;;;;;;7.72;1.20;;;20.70;99.90;;;;;;5001716;28;20086;-72
2023/06/27 07:49:26;;;;;;;5.57;1.13;;;20.80;99.90;;;;;;5004429;28;20123;-68
2023/06/27 07:51:52;;;;;;;7.25;1.23;;;21.00;99.90;;;;;;4987397;28;20038;-68
2023/06/27 07:54:19;;;;;;;7.03;1.05;;;21.10;99.90;;;;;;5006268;28;20061;-68
2023/06/27 07:56:47;;;;;;;6.32;1.25;;;21.20;99.90;;;;;;5005838;28;20042;-68
2023/06/27 07:59:13;;;;;;;5.13;1.00;;;21.30;99.90;;;;;;5005565;28;20972;-69
2023/06/27 08:01:40;;;;;;;5.25;1.20;;;21.40;99.90;;;;;;5000496;28;20060;-69
2023/06/27 08:04:06;;;;;;;9.45;1.30;;;21.50;99.90;;;;;;4996807;28;20054;-69
2023/06/27 08:06:32;;;;;;;4.65;0.98;;;21.50;99.90;;;;;;4995673;28;20049;-68
2023/06/27 08:08:58;;;;;;;5.90;1.30;;;21.50;99.90;;;;;;4995182;28;20503;-69
2023/06/27 08:11:24;;;;;;;4.95;1.00;;;21.50;99.90;;;;;;4989975;28;20266;-67
2023/06/27 08:13:50;;;;;;;5.90;1.20;;;21.40;99.90;;;;;;4989706;28;20087;-67
2023/06/27 08:16:16;;;;;;;7.18;1.00;;;21.40;99.90;;;;;;4990150;28;20474;-67
2023/06/27 08:18:41;;;;;;;6.68;1.20;;;21.40;99.90;;;;;;4990626;28;20048;-67
2023/06/27 08:21:07;;;;;;;5.80;1.10;;;21.40;99.90;;;;;;4995820;28;20095;-68
2023/06/27 08:23:33;;;;;;;7.40;1.20;;;21.30;99.90;;;;;;4974738;28;20081;-69
2023/06/27 08:25:59;;;;;;;7.10;1.30;;;21.30;99.90;;;;;;4985645;28;20042;-69
2023/06/27 08:28:25;;;;;;;4.90;1.08;;;21.30;99.90;;;;;;4981644;28;20042;-67
2023/06/27 08:30:50;;;;;;;7.53;1.35;;;21.20;99.90;;;;;;4982714;28;20789;-67
2023/06/27 08:33:16;;;;;;;6.57;1.30;;;21.10;99.90;;;;;;4984411;28;20119;-68
2023/06/27 08:35:43;;;;;;;8.55;1.30;;;21.10;99.90;;;;;;4997000;28;20390;-74
2023/06/27 08:38:10;;;;;;;6.63;1.38;;;21.20;99.90;;;;;;4996452;28;20038;-71
2023/06/27 08:40:36;;;;;;;6.93;1.30;;;21.20;99.90;;;;;;4995726;28;20057;-72
2023/06/27 08:43:06;;;;;;;6.75;1.38;;;21.40;99.90;;;;;;4989804;28;20038;-72
2023/06/27 08:45:35;;;;;;;7.70;1.30;;;21.40;99.90;;;;;;4995769;28;20638;-72
2023/06/27 08:48:02;;;;;;;20.30;1.77;;;21.50;99.90;;;;;;4996209;28;20204;-71
2023/06/27 08:50:29;;;;;;;8.60;1.63;;;21.50;99.90;;;;;;4994466;28;20892;-72
2023/06/27 08:52:56;;;;;;;7.63;1.30;;;21.60;99.90;;;;;;4998212;28;20048;-71
2023/06/27 08:55:41;;;;;;;6.93;1.20;;;21.70;99.90;;;;;;4997015;28;20038;-72
2023/06/27 08:58:13;;;;;;;5.25;1.23;;;21.80;99.90;;;;;;4989215;28;20068;-72
2023/06/27 09:00:39;;;;;;;5.15;1.10;;;21.70;98.10;;;;;;4991930;28;20681;-72
2023/06/27 09:03:06;;;;;;;4.32;1.00;;;21.70;99.00;;;;;;4981466;28;20057;-73
2023/06/27 09:05:35;;;;;;;5.20;1.00;;;21.60;98.20;;;;;;4993928;28;20096;-71
2023/06/27 09:08:00;;;;;;;6.10;1.10;;;21.50;98.90;;;;;;4995619;28;20050;-71
2023/06/27 09:10:27;;;;;;;5.85;1.05;;;21.50;99.10;;;;;;4987516;28;20081;-72
2023/06/27 09:12:56;;;;;;;7.03;1.20;;;21.50;98.60;;;;;;4984912;28;20037;-72
2023/06/27 09:15:22;;;;;;;6.88;1.40;;;21.60;99.00;;;;;;4983911;28;20107;-71
2023/06/27 09:17:48;;;;;;;6.30;0.95;;;21.60;98.30;;;;;;4973104;28;20554;-71
2023/06/27 09:20:18;;;;;;;6.10;1.13;;;21.60;98.70;;;;;;4985108;28;20056;-72
2023/06/27 09:22:44;;;;;;;5.43;1.00;;;21.60;98.50;;;;;;4989968;28;20069;-72
2023/06/27 09:25:19;;;;;;;7.60;1.20;;;21.70;99.10;;;;;;4990104;28;20088;-71
2023/06/27 09:27:45;;;;;;;8.13;1.40;;;21.70;99.30;;;;;;4994117;28;20046;-71
2023/06/27 09:30:12;;;;;;;9.30;1.40;;;21.90;99.60;;;;;;4989363;28;20080;-72
2023/06/27 09:32:57;;;;;;;4.45;1.00;;;22.00;99.70;;;;;;4986809;28;20518;-71
2023/06/27 09:35:25;;;;;;;5.78;1.25;;;22.00;99.60;;;;;;4989846;28;20038;-72
2023/06/27 09:37:52;;;;;;;8.52;1.83;;;22.10;98.80;;;;;;4973084;28;20053;-72
2023/06/27 09:40:25;;;;;;;8.18;1.20;;;22.10;97.60;;;;;;4988537;28;20120;-72
2023/06/27 09:42:51;;;;;;;5.00;0.88;;;22.10;98.10;;;;;;4994389;28;20120;-72
2023/06/27 09:45:17;;;;;;;7.93;1.38;;;22.20;99.10;;;;;;4968660;28;20041;-72
2023/06/27 09:47:43;;;;;;;5.30;0.95;;;22.30;99.60;;;;;;4998067;28;20042;-72
2023/06/27 09:50:09;;;;;;;10.18;1.48;;;22.40;98.70;;;;;;5000619;28;20042;-72
2023/06/27 09:52:35;;;;;;;6.00;1.05;;;22.40;98.30;;;;;;4974754;28;20045;-72
2023/06/27 09:55:01;;;;;;;5.07;1.23;;;22.50;98.30;;;;;;4969892;28;20418;-72
2023/06/27 09:57:29;;;;;;;7.45;1.30;;;22.50;98.00;;;;;;4994488;28;21477;-71
2023/06/27 09:59:59;;;;;;;7.90;1.38;;;22.50;98.50;;;;;;4996704;28;20045;-71
2023/06/27 10:02:31;;;;;;;6.75;1.10;;;22.60;97.20;;;;;;4997804;28;20100;-72
2023/06/27 10:04:58;;;;;;;4.55;1.15;;;22.60;97.20;;;;;;5001788;28;20119;-71
2023/06/27 10:07:24;;;;;;;6.72;1.38;;;22.60;97.00;;;;;;4992313;28;20223;-71
2023/06/27 10:09:50;;;;;;;5.90;1.20;;;22.50;96.50;;;;;;5003347;28;20050;-72
2023/06/27 10:12:17;;;;;;;6.93;1.30;;;22.50;96.20;;;;;;4993931;28;20567;-71
2023/06/27 10:14:47;;;;;;;4.75;1.00;;;22.50;97.00;;;;;;4988802;28;20503;-73
2023/06/27 10:17:18;;;;;;;6.47;1.25;;;22.50;97.00;;;;;;4989915;28;20053;-72
2023/06/27 10:19:48;;;;;;;7.80;1.17;;;22.50;97.10;;;;;;4988847;28;20112;-72
2023/06/27 10:22:17;;;;;;;9.23;1.30;;;22.50;97.00;;;;;;4985931;28;20413;-72
2023/06/27 10:24:45;;;;;;;6.18;0.98;;;22.50;96.00;;;;;;4984751;28;20042;-73
2023/06/27 10:27:13;;;;;;;8.95;1.13;;;22.50;96.90;;;;;;4986652;28;20565;-73
2023/06/27 10:29:43;;;;;;;6.25;1.55;;;22.50;96.40;;;;;;5000923;28;20735;-74
2023/06/27 10:32:10;;;;;;;5.78;1.30;;;22.50;96.10;;;;;;4984436;28;20048;-73
2023/06/27 10:34:43;;;;;;;6.15;1.10;;;22.50;96.40;;;;;;4985676;28;20140;-73
2023/06/27 10:37:25;;;;;;;7.35;1.30;;;22.50;96.10;;;;;;4992603;28;20037;-73
2023/06/27 10:40:04;;;;;;;6.63;1.20;;;22.50;95.80;;;;;;4983320;28;20097;-72
2023/06/27 10:42:31;;;;;;;9.23;1.45;;;22.60;96.50;;;;;;4986056;28;20080;-74
2023/06/27 10:45:10;;;;;;;8.63;1.20;;;22.60;96.40;;;;;;4984478;28;20717;-72
2023/06/27 10:47:41;;;;;;;12.68;1.70;;;22.60;96.70;;;;;;4991779;28;20077;-72
2023/06/27 10:50:14;;;;;;;4.07;1.10;;;22.70;96.60;;;;;;4999477;28;20042;-72
2023/06/27 10:52:59;;;;;;;8.07;1.52;;;22.70;96.40;;;;;;4995984;28;20056;-72
2023/06/27 10:55:29;;;;;;;8.57;1.70;;;22.80;96.60;;;;;;4982402;28;20050;-67
2023/06/27 10:58:03;;;;;;;4.82;1.02;;;22.80;96.40;;;;;;4988010;28;21897;-67
2023/06/27 11:00:33;;;;;;;7.10;1.30;;;22.90;96.50;;;;;;4989240;28;20084;-68
2023/06/27 11:03:03;;;;;;;6.88;1.38;;;22.90;95.60;;;;;;4991721;28;20049;-67
2023/06/27 11:05:58;;;;;;;5.00;1.33;;;22.90;95.60;;;;;;4990273;28;20045;-68
2023/06/27 11:08:29;;;;;;;9.10;1.55;;;22.90;94.70;;;;;;4975025;28;20107;-68
2023/06/27 11:11:06;;;;;;;4.70;1.00;;;22.90;95.00;;;;;;4992951;28;20045;-68
2023/06/27 11:13:45;;;;;;;8.05;1.15;;;22.90;95.30;;;;;;5003968;28;20042;-68
2023/06/27 11:16:12;;;;;;;6.28;1.00;;;22.90;96.00;;;;;;4980979;28;20387;-67
2023/06/27 11:18:38;;;;;;;8.10;1.27;;;23.00;95.30;;;;;;5008275;28;20042;-68
2023/06/27 11:21:04;;;;;;;3.55;1.20;;;23.00;94.80;;;;;;4997268;28;20368;-67
2023/06/27 11:23:30;;;;;;;8.32;1.27;;;23.00;95.00;;;;;;4999135;28;20046;-67
2023/06/27 11:25:56;;;;;;;8.57;1.67;;;22.90;94.60;;;;;;5003143;28;20076;-67
2023/06/27 11:28:23;;;;;;;7.03;1.35;;;22.80;94.90;;;;;;4998235;28;20132;-67
2023/06/27 11:30:49;;;;;;;7.50;1.35;;;22.80;95.20;;;;;;4996980;28;20792;-68
2023/06/27 11:33:16;;;;;;;7.20;1.23;;;22.80;94.50;;;;;;5003468;28;20160;-67
2023/06/27 11:35:42;;;;;;;6.15;1.23;;;22.80;94.60;;;;;;5003798;28;20084;-67
2023/06/27 11:38:09;;;;;;;8.00;1.30;;;22.70;94.70;;;;;;5002485;28;20132;-67
2023/06/27 11:40:35;;;;;;;6.82;1.33;;;22.70;94.60;;;;;;4999645;28;20061;-67
2023/06/27 11:43:07;;;;;;;5.50;1.20;;;22.60;94.30;;;;;;4992937;28;20134;-66
2023/06/27 11:45:36;;;;;;;6.13;1.33;;;22.60;95.30;;;;;;4983733;28;20057;-66
2023/06/27 11:48:02;;;;;;;7.18;1.38;;;22.60;95.50;;;;;;4984399;28;20073;-67
2023/06/27 11:50:29;;;;;;;6.65;1.50;;;22.60;95.90;;;;;;4988175;28;21137;-66
2023/06/27 11:52:58;;;;;;;7.15;1.20;;;22.60;95.80;;;;;;4982726;28;20089;-67
2023/06/27 11:55:24;;;;;;;6.95;1.10;;;22.60;95.60;;;;;;4986054;28;20049;-67
2023/06/27 11:57:55;;;;;;;6.60;1.50;;;22.60;95.50;;;;;;4987539;28;20170;-67
2023/06/27 12:00:23;;;;;;;5.53;1.02;;;22.60;95.60;;;;;;4988232;28;20796;-67
2023/06/27 12:02:53;;;;;;;7.05;1.30;;;22.60;95.30;;;;;;4988691;28;20057;-67
2023/06/27 12:05:21;;;;;;;5.82;1.10;;;22.50;95.10;;;;;;4989026;28;20051;-67
2023/06/27 12:08:15;;;;;;;6.93;1.20;;;22.50;95.20;;;;;;5004591;28;20050;-67
2023/06/27 12:10:52;;;;;;;8.30;1.10;;;22.60;95.40;;;;;;4985838;28;20065;-68
2023/06/27 12:13:18;;;;;;;9.73;1.55;;;22.50;95.30;;;;;;4987499;28;20084;-68
2023/06/27 12:15:47;;;;;;;5.65;1.45;;;22.50;94.40;;;;;;4979180;28;20050;-67
2023/06/27 12:18:24;;;;;;;6.32;1.38;;;22.40;94.30;;;;;;4987287;28;20109;-67
2023/06/27 12:20:51;;;;;;;4.53;0.80;;;22.40;94.20;;;;;;4986859;28;20052;-67
2023/06/27 12:23:17;;;;;;;5.45;1.08;;;22.40;94.50;;;;;;4989762;28;20515;-68
2023/06/27 12:25:44;;;;;;;11.23;1.25;;;22.30;94.40;;;;;;4983328;28;20046;-68
2023/06/27 12:28:10;;;;;;;7.63;1.13;;;22.40;94.20;;;;;;4989370;28;20050;-68
2023/06/27 12:30:36;;;;;;;7.25;1.02;;;22.30;93.90;;;;;;4988391;28;20430;-67
2023/06/27 12:33:02;;;;;;;9.35;1.30;;;22.30;94.10;;;;;;4989221;28;20053;-67
2023/06/27 12:35:29;;;;;;;5.95;1.20;;;22.30;94.20;;;;;;4991965;28;20153;-67
2023/06/27 12:37:54;;;;;;;4.82;1.10;;;22.30;93.50;;;;;;4993498;28;20806;-68
2023/06/27 12:40:22;;;;;;;5.05;1.00;;;22.20;93.80;;;;;;4992893;28;20164;-68
2023/06/27 12:42:50;;;;;;;5.30;1.00;;;22.20;93.00;;;;;;4990228;28;20198;-68
2023/06/27 12:45:16;;;;;;;5.70;1.17;;;22.20;93.60;;;;;;4993019;28;20111;-68
2023/06/27 12:47:43;;;;;;;5.45;0.90;;;22.10;93.60;;;;;;4993919;28;20122;-67
2023/06/27 12:50:27;;;;;;;5.57;0.93;;;22.20;94.10;;;;;;4992096;28;20053;-67